sensor_id;sensor_type;location;lat;lon;timestamp;temperature;humidity
13203;DHT22;6666;51.626;7.530;2022-08-21T00:02:14;16.60;99.90
13203;DHT22;6666;51.626;7.530;2022-08-21T00:04:42;16.60;99.90
13203;DHT22;6666;51.626;7.530;2022-08-21T00:07:23;16.50;99.90
13203;DHT22;6666;51.626;7.530;2022-08-21T00:09:52;16.60;99.90
13203;DHT22;6666;51.626;7.530;2022-08-21T00:12:21;16.50;99.90
13203;DHT22;6666;51.626;7.530;2022-08-21T00:14:50;16.60;99.90
13203;DHT22;6666;51.626;7.530;2022-08-21T00:17:23;16.50;99.90
13203;DHT22;6666;51.626;7.530;2022-08-21T00:19:51;16.60;99.90
13203;DHT22;6666;51.626;7.530;2022-08-21T00:22:19;16.50;99.90
13203;DHT22;6666;51.626;7.530;2022-08-21T00:24:47;16.50;99.90
13203;DHT22;6666;51.626;7.530;2022-08-21T00:27:16;16.50;99.90
13203;DHT22;6666;51.626;7.530;2022-08-21T00:29:44;16.50;99.90
13203;DHT22;6666;51.626;7.530;2022-08-21T00:32:19;16.60;99.90
13203;DHT22;6666;51.626;7.530;2022-08-21T00:34:48;16.70;99.90
13203;DHT22;6666;51.626;7.530;2022-08-21T00:37:16;16.70;99.90
13203;DHT22;6666;51.626;7.530;2022-08-21T00:39:45;16.70;99.90
13203;DHT22;6666;51.626;7.530;2022-08-21T00:42:14;16.70;99.90
13203;DHT22;6666;51.626;7.530;2022-08-21T00:44:42;16.70;99.90
13203;DHT22;6666;51.626;7.530;2022-08-21T00:47:11;16.70;99.90
13203;DHT22;6666;51.626;7.530;2022-08-21T00:49:41;16.70;99.90
13203;DHT22;6666;51.626;7.530;2022-08-21T00:52:13;16.70;99.90
13203;DHT22;6666;51.626;7.530;2022-08-21T00:54:43;16.50;99.90
13203;DHT22;6666;51.626;7.530;2022-08-21T00:57:16;16.50;99.90
13203;DHT22;6666;51.626;7.530;2022-08-21T00:59:47;16.50;99.90
13203;DHT22;6666;51.626;7.530;2022-08-21T01:02:17;16.30;99.90
13203;DHT22;6666;51.626;7.530;2022-08-21T01:04:48;16.30;99.90
13203;DHT22;6666;51.626;7.530;2022-08-21T01:07:17;16.40;99.90
13203;DHT22;6666;51.626;7.530;2022-08-21T01:09:48;16.40;99.90
13203;DHT22;6666;51.626;7.530;2022-08-21T01:12:18;16.40;99.90
13203;DHT22;6666;51.626;7.530;2022-08-21T01:14:47;16.40;99.90
13203;DHT22;6666;51.626;7.530;2022-08-21T01:17:16;16.40;99.90
13203;DHT22;6666;51.626;7.530;2022-08-21T01:19:45;16.40;99.90
13203;DHT22;6666;51.626;7.530;2022-08-21T01:22:15;16.50;99.90
13203;DHT22;6666;51.626;7.530;2022-08-21T01:24:43;16.40;99.90
13203;DHT22;6666;51.626;7.530;2022-08-21T01:27:11;16.50;99.90
13203;DHT22;6666;51.626;7.530;2022-08-21T01:29:45;16.60;99.90
13203;DHT22;6666;51.626;7.530;2022-08-21T01:32:17;16.50;99.90
13203;DHT22;6666;51.626;7.530;2022-08-21T01:34:47;16.60;99.90
13203;DHT22;6666;51.626;7.530;2022-08-21T01:37:19;16.60;99.90
13203;DHT22;6666;51.626;7.530;2022-08-21T01:39:48;16.60;99.90
13203;DHT22;6666;51.626;7.530;2022-08-21T01:42:17;16.60;99.90
13203;DHT22;6666;51.626;7.530;2022-08-21T01:44:45;16.60;99.90
13203;DHT22;6666;51.626;7.530;2022-08-21T01:47:15;16.60;99.90
13203;DHT22;6666;51.626;7.530;2022-08-21T01:49:45;16.70;99.90
13203;DHT22;6666;51.626;7.530;2022-08-21T01:52:13;16.70;99.90
13203;DHT22;6666;51.626;7.530;2022-08-21T01:54:43;16.80;99.90
13203;DHT22;6666;51.626;7.530;2022-08-21T01:57:21;16.80;99.90
13203;DHT22;6666;51.626;7.530;2022-08-21T01:59:52;16.90;99.90
13203;DHT22;6666;51.626;7.530;2022-08-21T02:02:21;16.90;99.90
13203;DHT22;6666;51.626;7.530;2022-08-21T02:04:49;16.70;99.90
13203;DHT22;6666;51.626;7.530;2022-08-21T02:07:17;16.70;99.90
13203;DHT22;6666;51.626;7.530;2022-08-21T02:09:48;16.60;99.90
13203;DHT22;6666;51.626;7.530;2022-08-21T02:12:16;16.50;99.90
13203;DHT22;6666;51.626;7.530;2022-08-21T02:14:44;16.40;99.90
13203;DHT22;6666;51.626;7.530;2022-08-21T02:17:13;16.30;99.90
13203;DHT22;6666;51.626;7.530;2022-08-21T02:19:41;16.20;99.90
13203;DHT22;6666;51.626;7.530;2022-08-21T02:22:10;16.30;99.90
13203;DHT22;6666;51.626;7.530;2022-08-21T02:24:40;16.30;99.90
13203;DHT22;6666;51.626;7.530;2022-08-21T02:27:23;16.10;99.90
13203;DHT22;6666;51.626;7.530;2022-08-21T02:29:53;16.10;99.90
13203;DHT22;6666;51.626;7.530;2022-08-21T02:32:21;16.00;99.90
13203;DHT22;6666;51.626;7.530;2022-08-21T02:34:50;16.00;99.90
13203;DHT22;6666;51.626;7.530;2022-08-21T02:37:19;15.80;99.90
13203;DHT22;6666;51.626;7.530;2022-08-21T02:39:47;15.80;99.90
13203;DHT22;6666;51.626;7.530;2022-08-21T02:42:16;15.80;99.90
13203;DHT22;6666;51.626;7.530;2022-08-21T02:44:46;15.80;99.90
13203;DHT22;6666;51.626;7.530;2022-08-21T02:47:14;15.80;99.90
13203;DHT22;6666;51.626;7.530;2022-08-21T02:49:43;15.70;99.90
13203;DHT22;6666;51.626;7.530;2022-08-21T02:52:11;15.70;99.90
13203;DHT22;6666;51.626;7.530;2022-08-21T02:54:39;15.70;99.90
13203;DHT22;6666;51.626;7.530;2022-08-21T02:57:08;15.70;99.90
13203;DHT22;6666;51.626;7.530;2022-08-21T02:59:36;15.60;99.90
13203;DHT22;6666;51.626;7.530;2022-08-21T03:02:06;15.50;99.90
13203;DHT22;6666;51.626;7.530;2022-08-21T03:04:34;15.50;99.90
13203;DHT22;6666;51.626;7.530;2022-08-21T03:07:03;15.50;99.90
13203;DHT22;6666;51.626;7.530;2022-08-21T03:09:37;15.50;99.90
13203;DHT22;6666;51.626;7.530;2022-08-21T03:12:21;15.40;99.90
13203;DHT22;6666;51.626;7.530;2022-08-21T03:14:49;15.40;99.90
13203;DHT22;6666;51.626;7.530;2022-08-21T03:17:19;15.40;99.90
13203;DHT22;6666;51.626;7.530;2022-08-21T03:19:56;15.40;99.90
13203;DHT22;6666;51.626;7.530;2022-08-21T03:22:25;15.30;99.90
13203;DHT22;6666;51.626;7.530;2022-08-21T03:24:56;15.30;99.90
13203;DHT22;6666;51.626;7.530;2022-08-21T03:27:26;15.40;99.90
13203;DHT22;6666;51.626;7.530;2022-08-21T03:29:55;15.30;99.90
13203;DHT22;6666;51.626;7.530;2022-08-21T03:32:26;15.20;99.90
13203;DHT22;6666;51.626;7.530;2022-08-21T03:34:54;15.20;99.90
13203;DHT22;6666;51.626;7.530;2022-08-21T03:37:23;15.20;99.90
13203;DHT22;6666;51.626;7.530;2022-08-21T03:39:51;15.20;99.90
13203;DHT22;6666;51.626;7.530;2022-08-21T03:42:20;15.20;99.90
13203;DHT22;6666;51.626;7.530;2022-08-21T03:44:48;15.20;99.90
13203;DHT22;6666;51.626;7.530;2022-08-21T03:47:17;15.20;99.90
13203;DHT22;6666;51.626;7.530;2022-08-21T03:49:46;15.10;99.90
13203;DHT22;6666;51.626;7.530;2022-08-21T03:52:15;15.10;99.90
13203;DHT22;6666;51.626;7.530;2022-08-21T03:54:44;15.00;99.90
13203;DHT22;6666;51.626;7.530;2022-08-21T03:57:13;14.90;99.90
13203;DHT22;6666;51.626;7.530;2022-08-21T03:59:42;14.90;99.90
13203;DHT22;6666;51.626;7.530;2022-08-21T04:02:11;15.00;99.90
13203;DHT22;6666;51.626;7.530;2022-08-21T04:04:43;15.00;99.90
13203;DHT22;6666;51.626;7.530;2022-08-21T04:07:12;14.90;99.90
13203;DHT22;6666;51.626;7.530;2022-08-21T04:09:40;14.80;99.90
13203;DHT22;6666;51.626;7.530;2022-08-21T04:12:09;14.90;99.90
13203;DHT22;6666;51.626;7.530;2022-08-21T04:14:37;14.90;99.90
13203;DHT22;6666;51.626;7.530;2022-08-21T04:17:05;14.90;99.90
13203;DHT22;6666;51.626;7.530;2022-08-21T04:19:34;15.00;99.90
13203;DHT22;6666;51.626;7.530;2022-08-21T04:22:02;15.00;99.90
13203;DHT22;6666;51.626;7.530;2022-08-21T04:24:33;14.90;99.90
13203;DHT22;6666;51.626;7.530;2022-08-21T04:27:01;14.90;99.90
13203;DHT22;6666;51.626;7.530;2022-08-21T04:29:30;14.90;99.90
13203;DHT22;6666;51.626;7.530;2022-08-21T04:32:01;14.90;99.90
13203;DHT22;6666;51.626;7.530;2022-08-21T04:34:29;14.80;99.90
13203;DHT22;6666;51.626;7.530;2022-08-21T04:36:57;14.90;99.90
13203;DHT22;6666;51.626;7.530;2022-08-21T04:39:26;14.90;99.90
13203;DHT22;6666;51.626;7.530;2022-08-21T04:41:57;14.90;99.90
13203;DHT22;6666;51.626;7.530;2022-08-21T04:44:25;14.90;99.90
13203;DHT22;6666;51.626;7.530;2022-08-21T04:46:53;14.90;99.90
13203;DHT22;6666;51.626;7.530;2022-08-21T04:49:22;15.00;99.90
13203;DHT22;6666;51.626;7.530;2022-08-21T04:51:50;15.10;99.90
13203;DHT22;6666;51.626;7.530;2022-08-21T04:54:20;15.10;99.90
13203;DHT22;6666;51.626;7.530;2022-08-21T04:56:52;15.10;99.90
13203;DHT22;6666;51.626;7.530;2022-08-21T04:59:30;15.20;99.90
13203;DHT22;6666;51.626;7.530;2022-08-21T05:02:00;15.30;99.90
13203;DHT22;6666;51.626;7.530;2022-08-21T05:04:32;15.30;99.90
13203;DHT22;6666;51.626;7.530;2022-08-21T05:07:05;15.30;99.90
13203;DHT22;6666;51.626;7.530;2022-08-21T05:09:34;15.30;99.90
13203;DHT22;6666;51.626;7.530;2022-08-21T05:12:03;15.40;99.90
13203;DHT22;6666;51.626;7.530;2022-08-21T05:14:33;15.40;99.90
13203;DHT22;6666;51.626;7.530;2022-08-21T05:17:02;15.40;99.90
13203;DHT22;6666;51.626;7.530;2022-08-21T05:19:31;15.50;99.90
13203;DHT22;6666;51.626;7.530;2022-08-21T05:21:59;15.70;99.90
13203;DHT22;6666;51.626;7.530;2022-08-21T05:24:28;16.90;99.90
13203;DHT22;6666;51.626;7.530;2022-08-21T05:26:56;18.00;99.90
13203;DHT22;6666;51.626;7.530;2022-08-21T05:29:29;18.90;99.90
13203;DHT22;6666;51.626;7.530;2022-08-21T05:31:59;19.70;99.90
13203;DHT22;6666;51.626;7.530;2022-08-21T05:34:28;20.50;99.90
13203;DHT22;6666;51.626;7.530;2022-08-21T05:36:58;21.00;99.90
13203;DHT22;6666;51.626;7.530;2022-08-21T05:39:33;21.60;99.90
13203;DHT22;6666;51.626;7.530;2022-08-21T05:42:21;21.80;99.90
13203;DHT22;6666;51.626;7.530;2022-08-21T05:44:50;21.90;99.90
13203;DHT22;6666;51.626;7.530;2022-08-21T05:47:21;22.00;99.90
13203;DHT22;6666;51.626;7.530;2022-08-21T05:49:49;21.50;99.90
13203;DHT22;6666;51.626;7.530;2022-08-21T05:52:19;20.30;99.90
13203;DHT22;6666;51.626;7.530;2022-08-21T05:54:47;19.80;99.90
13203;DHT22;6666;51.626;7.530;2022-08-21T05:57:16;19.40;99.90
13203;DHT22;6666;51.626;7.530;2022-08-21T05:59:44;19.20;99.90
13203;DHT22;6666;51.626;7.530;2022-08-21T06:02:13;19.00;99.90
13203;DHT22;6666;51.626;7.530;2022-08-21T06:04:42;18.80;99.90
13203;DHT22;6666;51.626;7.530;2022-08-21T06:07:11;18.70;99.90
13203;DHT22;6666;51.626;7.530;2022-08-21T06:09:40;18.60;99.90
13203;DHT22;6666;51.626;7.530;2022-08-21T06:12:11;18.60;99.90
13203;DHT22;6666;51.626;7.530;2022-08-21T06:14:41;18.60;99.90
13203;DHT22;6666;51.626;7.530;2022-08-21T06:17:11;18.60;99.90
13203;DHT22;6666;51.626;7.530;2022-08-21T06:19:39;18.60;99.90
13203;DHT22;6666;51.626;7.530;2022-08-21T06:22:09;18.60;99.90
13203;DHT22;6666;51.626;7.530;2022-08-21T06:24:37;18.60;99.90
13203;DHT22;6666;51.626;7.530;2022-08-21T06:27:06;18.50;99.90
13203;DHT22;6666;51.626;7.530;2022-08-21T06:29:35;18.50;99.90
13203;DHT22;6666;51.626;7.530;2022-08-21T06:32:11;18.70;99.90
13203;DHT22;6666;51.626;7.530;2022-08-21T06:34:42;18.80;99.90
13203;DHT22;6666;51.626;7.530;2022-08-21T06:37:11;18.90;99.90
13203;DHT22;6666;51.626;7.530;2022-08-21T06:39:40;19.00;99.90
13203;DHT22;6666;51.626;7.530;2022-08-21T06:42:13;19.10;99.90
13203;DHT22;6666;51.626;7.530;2022-08-21T06:44:44;19.10;99.90
13203;DHT22;6666;51.626;7.530;2022-08-21T06:47:12;19.00;99.90
13203;DHT22;6666;51.626;7.530;2022-08-21T06:49:41;19.10;99.90
13203;DHT22;6666;51.626;7.530;2022-08-21T06:52:12;19.10;99.90
13203;DHT22;6666;51.626;7.530;2022-08-21T06:54:41;19.30;99.90
13203;DHT22;6666;51.626;7.530;2022-08-21T06:57:09;19.20;99.90
13203;DHT22;6666;51.626;7.530;2022-08-21T06:59:38;19.40;99.90
13203;DHT22;6666;51.626;7.530;2022-08-21T07:02:06;19.40;99.90
13203;DHT22;6666;51.626;7.530;2022-08-21T07:04:35;19.60;99.90
13203;DHT22;6666;51.626;7.530;2022-08-21T07:07:03;19.50;99.90
13203;DHT22;6666;51.626;7.530;2022-08-21T07:09:33;19.40;99.90
13203;DHT22;6666;51.626;7.530;2022-08-21T07:12:02;19.50;99.90
13203;DHT22;6666;51.626;7.530;2022-08-21T07:14:31;19.50;99.90
13203;DHT22;6666;51.626;7.530;2022-08-21T07:16:59;19.60;99.90
13203;DHT22;6666;51.626;7.530;2022-08-21T07:19:28;19.70;99.90
13203;DHT22;6666;51.626;7.530;2022-08-21T07:22:00;19.90;99.90
13203;DHT22;6666;51.626;7.530;2022-08-21T07:24:29;20.00;99.90
13203;DHT22;6666;51.626;7.530;2022-08-21T07:26:59;20.00;99.90
13203;DHT22;6666;51.626;7.530;2022-08-21T07:29:32;20.20;99.90
13203;DHT22;6666;51.626;7.530;2022-08-21T07:32:02;20.10;99.90
13203;DHT22;6666;51.626;7.530;2022-08-21T07:34:31;20.20;99.90
13203;DHT22;6666;51.626;7.530;2022-08-21T07:36:59;20.20;99.90
13203;DHT22;6666;51.626;7.530;2022-08-21T07:39:36;20.40;99.90
13203;DHT22;6666;51.626;7.530;2022-08-21T07:42:06;20.40;99.90
13203;DHT22;6666;51.626;7.530;2022-08-21T07:44:34;20.40;99.90
13203;DHT22;6666;51.626;7.530;2022-08-21T07:47:03;20.50;99.90
13203;DHT22;6666;51.626;7.530;2022-08-21T07:49:31;20.40;99.90
13203;DHT22;6666;51.626;7.530;2022-08-21T07:51:59;20.50;99.90
13203;DHT22;6666;51.626;7.530;2022-08-21T07:54:28;20.60;99.90
13203;DHT22;6666;51.626;7.530;2022-08-21T07:57:00;20.80;99.90
13203;DHT22;6666;51.626;7.530;2022-08-21T07:59:30;21.00;99.90
13203;DHT22;6666;51.626;7.530;2022-08-21T08:01:58;21.10;99.90
13203;DHT22;6666;51.626;7.530;2022-08-21T08:04:27;21.00;99.90
13203;DHT22;6666;51.626;7.530;2022-08-21T08:06:55;21.30;99.90
13203;DHT22;6666;51.626;7.530;2022-08-21T08:09:23;21.30;99.90
13203;DHT22;6666;51.626;7.530;2022-08-21T08:11:52;21.40;99.90
13203;DHT22;6666;51.626;7.530;2022-08-21T08:14:20;21.30;99.90
13203;DHT22;6666;51.626;7.530;2022-08-21T08:16:58;21.40;99.90
13203;DHT22;6666;51.626;7.530;2022-08-21T08:19:28;21.50;99.90
13203;DHT22;6666;51.626;7.530;2022-08-21T08:21:57;21.40;99.90
13203;DHT22;6666;51.626;7.530;2022-08-21T08:24:25;21.30;99.90
13203;DHT22;6666;51.626;7.530;2022-08-21T08:26:54;21.50;99.90
13203;DHT22;6666;51.626;7.530;2022-08-21T08:29:23;21.50;99.90
13203;DHT22;6666;51.626;7.530;2022-08-21T08:31:53;21.60;99.90
13203;DHT22;6666;51.626;7.530;2022-08-21T08:34:22;21.50;99.90
13203;DHT22;6666;51.626;7.530;2022-08-21T08:36:52;21.60;99.90
13203;DHT22;6666;51.626;7.530;2022-08-21T08:39:20;21.60;99.90
13203;DHT22;6666;51.626;7.530;2022-08-21T08:41:58;21.70;99.90
13203;DHT22;6666;51.626;7.530;2022-08-21T08:44:50;21.90;99.90
13203;DHT22;6666;51.626;7.530;2022-08-21T08:47:24;21.90;99.90
13203;DHT22;6666;51.626;7.530;2022-08-21T08:50:00;21.90;99.90
13203;DHT22;6666;51.626;7.530;2022-08-21T08:52:33;22.10;99.90
13203;DHT22;6666;51.626;7.530;2022-08-21T08:55:05;22.10;99.90
13203;DHT22;6666;51.626;7.530;2022-08-21T08:57:35;22.20;99.90
13203;DHT22;6666;51.626;7.530;2022-08-21T09:00:08;22.20;99.90
13203;DHT22;6666;51.626;7.530;2022-08-21T09:02:39;22.20;99.90
13203;DHT22;6666;51.626;7.530;2022-08-21T09:05:18;22.20;99.90
13203;DHT22;6666;51.626;7.530;2022-08-21T09:07:53;22.20;99.90
13203;DHT22;6666;51.626;7.530;2022-08-21T09:10:38;22.30;99.90
13203;DHT22;6666;51.626;7.530;2022-08-21T09:13:17;22.10;99.90
13203;DHT22;6666;51.626;7.530;2022-08-21T09:15:56;22.30;99.90
13203;DHT22;6666;51.626;7.530;2022-08-21T09:18:38;22.40;99.90
13203;DHT22;6666;51.626;7.530;2022-08-21T09:21:18;22.50;99.90
13203;DHT22;6666;51.626;7.530;2022-08-21T09:23:57;22.70;99.90
13203;DHT22;6666;51.626;7.530;2022-08-21T09:26:30;22.80;99.90
13203;DHT22;6666;51.626;7.530;2022-08-21T09:29:00;22.80;99.90
13203;DHT22;6666;51.626;7.530;2022-08-21T09:31:30;22.60;99.90
13203;DHT22;6666;51.626;7.530;2022-08-21T09:34:00;22.70;99.90
13203;DHT22;6666;51.626;7.530;2022-08-21T09:36:37;22.80;99.90
13203;DHT22;6666;51.626;7.530;2022-08-21T09:39:06;22.50;99.90
13203;DHT22;6666;51.626;7.530;2022-08-21T09:41:36;22.60;99.90
13203;DHT22;6666;51.626;7.530;2022-08-21T09:44:07;22.80;99.90
13203;DHT22;6666;51.626;7.530;2022-08-21T09:46:36;22.60;99.90
13203;DHT22;6666;51.626;7.530;2022-08-21T09:49:05;22.70;99.90
13203;DHT22;6666;51.626;7.530;2022-08-21T09:51:50;22.90;99.90
13203;DHT22;6666;51.626;7.530;2022-08-21T09:54:26;22.80;99.90
13203;DHT22;6666;51.626;7.530;2022-08-21T09:56:57;22.70;99.90
13203;DHT22;6666;51.626;7.530;2022-08-21T09:59:44;22.70;99.90
13203;DHT22;6666;51.626;7.530;2022-08-21T10:02:29;22.70;99.90
13203;DHT22;6666;51.626;7.530;2022-08-21T10:05:01;22.50;99.90
13203;DHT22;6666;51.626;7.530;2022-08-21T10:07:32;22.50;99.90
13203;DHT22;6666;51.626;7.530;2022-08-21T10:10:05;22.50;99.90
13203;DHT22;6666;51.626;7.530;2022-08-21T10:12:41;22.50;99.90
13203;DHT22;6666;51.626;7.530;2022-08-21T10:15:18;22.80;99.90
13203;DHT22;6666;51.626;7.530;2022-08-21T10:17:54;23.00;99.90
13203;DHT22;6666;51.626;7.530;2022-08-21T10:20:31;23.00;99.90
13203;DHT22;6666;51.626;7.530;2022-08-21T10:23:23;22.90;99.90
13203;DHT22;6666;51.626;7.530;2022-08-21T10:25:58;22.90;99.90
13203;DHT22;6666;51.626;7.530;2022-08-21T10:28:44;23.00;99.90
13203;DHT22;6666;51.626;7.530;2022-08-21T10:31:18;22.90;99.90
13203;DHT22;6666;51.626;7.530;2022-08-21T10:33:53;22.90;99.90
13203;DHT22;6666;51.626;7.530;2022-08-21T10:36:33;23.00;99.90
13203;DHT22;6666;51.626;7.530;2022-08-21T10:39:11;23.00;99.90
13203;DHT22;6666;51.626;7.530;2022-08-21T10:42:15;22.80;99.90
13203;DHT22;6666;51.626;7.530;2022-08-21T10:44:52;22.90;99.90
13203;DHT22;6666;51.626;7.530;2022-08-21T10:47:28;22.80;99.90
13203;DHT22;6666;51.626;7.530;2022-08-21T10:50:03;22.90;99.90
13203;DHT22;6666;51.626;7.530;2022-08-21T10:52:44;23.10;99.90
13203;DHT22;6666;51.626;7.530;2022-08-21T10:55:20;23.10;99.90
13203;DHT22;6666;51.626;7.530;2022-08-21T10:57:53;23.20;99.90
13203;DHT22;6666;51.626;7.530;2022-08-21T11:00:26;23.40;99.90
13203;DHT22;6666;51.626;7.530;2022-08-21T11:03:01;23.20;99.90
13203;DHT22;6666;51.626;7.530;2022-08-21T11:05:35;23.30;99.90
13203;DHT22;6666;51.626;7.530;2022-08-21T11:08:10;23.40;99.90
13203;DHT22;6666;51.626;7.530;2022-08-21T11:10:46;23.40;99.90
13203;DHT22;6666;51.626;7.530;2022-08-21T11:13:31;23.40;99.90
13203;DHT22;6666;51.626;7.530;2022-08-21T11:16:10;23.60;99.90
13203;DHT22;6666;51.626;7.530;2022-08-21T11:18:46;23.60;99.90
13203;DHT22;6666;51.626;7.530;2022-08-21T11:21:34;23.60;99.90
13203;DHT22;6666;51.626;7.530;2022-08-21T11:24:15;23.60;99.90
13203;DHT22;6666;51.626;7.530;2022-08-21T11:26:49;23.70;99.90
13203;DHT22;6666;51.626;7.530;2022-08-21T11:29:23;23.80;99.90
13203;DHT22;6666;51.626;7.530;2022-08-21T11:32:02;23.60;99.90
13203;DHT22;6666;51.626;7.530;2022-08-21T11:34:43;23.60;99.90
13203;DHT22;6666;51.626;7.530;2022-08-21T11:37:19;23.40;99.90
13203;DHT22;6666;51.626;7.530;2022-08-21T11:42:48;23.50;99.90
13203;DHT22;6666;51.626;7.530;2022-08-21T11:45:26;23.60;99.90
13203;DHT22;6666;51.626;7.530;2022-08-21T11:48:07;23.60;99.90
13203;DHT22;6666;51.626;7.530;2022-08-21T11:50:42;23.50;99.90
13203;DHT22;6666;51.626;7.530;2022-08-21T11:53:15;23.60;99.90
13203;DHT22;6666;51.626;7.530;2022-08-21T11:55:48;23.70;99.90
13203;DHT22;6666;51.626;7.530;2022-08-21T11:58:22;23.80;99.90
13203;DHT22;6666;51.626;7.530;2022-08-21T12:00:55;23.60;99.50
13203;DHT22;6666;51.626;7.530;2022-08-21T12:03:27;23.60;99.80
13203;DHT22;6666;51.626;7.530;2022-08-21T12:05:58;23.80;99.30
13203;DHT22;6666;51.626;7.530;2022-08-21T12:08:30;23.90;99.30
13203;DHT22;6666;51.626;7.530;2022-08-21T12:11:03;23.70;99.50
13203;DHT22;6666;51.626;7.530;2022-08-21T12:13:35;23.80;99.30
13203;DHT22;6666;51.626;7.530;2022-08-21T12:16:10;23.80;98.80
13203;DHT22;6666;51.626;7.530;2022-08-21T12:18:40;23.80;99.20
13203;DHT22;6666;51.626;7.530;2022-08-21T12:21:21;23.70;99.20
13203;DHT22;6666;51.626;7.530;2022-08-21T12:24:02;23.80;98.90
13203;DHT22;6666;51.626;7.530;2022-08-21T12:26:33;23.80;99.30
13203;DHT22;6666;51.626;7.530;2022-08-21T12:29:12;23.90;99.70
13203;DHT22;6666;51.626;7.530;2022-08-21T12:31:53;23.90;99.20
13203;DHT22;6666;51.626;7.530;2022-08-21T12:34:24;24.00;99.90
13203;DHT22;6666;51.626;7.530;2022-08-21T12:36:58;24.00;99.60
13203;DHT22;6666;51.626;7.530;2022-08-21T12:39:30;24.00;99.90
13203;DHT22;6666;51.626;7.530;2022-08-21T12:42:05;23.90;99.50
13203;DHT22;6666;51.626;7.530;2022-08-21T12:44:39;24.00;99.60
13203;DHT22;6666;51.626;7.530;2022-08-21T12:47:15;24.00;99.90
13203;DHT22;6666;51.626;7.530;2022-08-21T12:49:52;24.10;99.70
13203;DHT22;6666;51.626;7.530;2022-08-21T12:52:24;24.10;98.60
13203;DHT22;6666;51.626;7.530;2022-08-21T12:54:53;24.00;99.20
13203;DHT22;6666;51.626;7.530;2022-08-21T12:57:23;24.10;99.90
13203;DHT22;6666;51.626;7.530;2022-08-21T12:59:58;24.20;99.10
13203;DHT22;6666;51.626;7.530;2022-08-21T13:02:32;24.20;99.80
13203;DHT22;6666;51.626;7.530;2022-08-21T13:05:03;24.20;98.60
13203;DHT22;6666;51.626;7.530;2022-08-21T13:07:34;24.30;99.10
13203;DHT22;6666;51.626;7.530;2022-08-21T13:10:06;24.30;98.50
13203;DHT22;6666;51.626;7.530;2022-08-21T13:12:35;24.20;98.90
13203;DHT22;6666;51.626;7.530;2022-08-21T13:15:07;24.20;99.10
13203;DHT22;6666;51.626;7.530;2022-08-21T13:17:39;24.30;98.80
13203;DHT22;6666;51.626;7.530;2022-08-21T13:20:10;24.30;98.30
13203;DHT22;6666;51.626;7.530;2022-08-21T13:22:46;24.20;97.90
13203;DHT22;6666;51.626;7.530;2022-08-21T13:25:17;24.20;99.20
13203;DHT22;6666;51.626;7.530;2022-08-21T13:27:58;24.30;98.90
13203;DHT22;6666;51.626;7.530;2022-08-21T13:30:29;24.50;98.20
13203;DHT22;6666;51.626;7.530;2022-08-21T13:33:01;24.40;97.30
13203;DHT22;6666;51.626;7.530;2022-08-21T13:35:36;24.40;98.50
13203;DHT22;6666;51.626;7.530;2022-08-21T13:38:05;24.40;98.80
13203;DHT22;6666;51.626;7.530;2022-08-21T13:40:41;24.30;97.70
13203;DHT22;6666;51.626;7.530;2022-08-21T13:43:12;24.30;98.90
13203;DHT22;6666;51.626;7.530;2022-08-21T13:45:50;24.50;98.90
13203;DHT22;6666;51.626;7.530;2022-08-21T13:48:19;24.50;98.50
13203;DHT22;6666;51.626;7.530;2022-08-21T13:50:48;24.60;97.50
13203;DHT22;6666;51.626;7.530;2022-08-21T13:53:22;24.70;97.50
13203;DHT22;6666;51.626;7.530;2022-08-21T13:55:51;24.50;97.50
13203;DHT22;6666;51.626;7.530;2022-08-21T13:58:28;24.60;96.70
13203;DHT22;6666;51.626;7.530;2022-08-21T14:01:00;24.60;97.30
13203;DHT22;6666;51.626;7.530;2022-08-21T14:03:36;24.70;98.30
13203;DHT22;6666;51.626;7.530;2022-08-21T14:06:12;24.70;98.30
13203;DHT22;6666;51.626;7.530;2022-08-21T14:08:42;24.50;98.50
13203;DHT22;6666;51.626;7.530;2022-08-21T14:11:15;24.60;99.60
13203;DHT22;6666;51.626;7.530;2022-08-21T14:13:48;24.80;98.10
13203;DHT22;6666;51.626;7.530;2022-08-21T14:16:20;24.70;96.70
13203;DHT22;6666;51.626;7.530;2022-08-21T14:18:52;24.90;96.60
13203;DHT22;6666;51.626;7.530;2022-08-21T14:21:28;24.70;96.90
13203;DHT22;6666;51.626;7.530;2022-08-21T14:24:07;24.70;97.50
13203;DHT22;6666;51.626;7.530;2022-08-21T14:26:44;24.80;97.10
13203;DHT22;6666;51.626;7.530;2022-08-21T14:29:15;24.80;97.00
13203;DHT22;6666;51.626;7.530;2022-08-21T14:31:50;24.80;98.30
13203;DHT22;6666;51.626;7.530;2022-08-21T14:34:19;24.80;98.80
13203;DHT22;6666;51.626;7.530;2022-08-21T14:36:48;24.80;98.10
13203;DHT22;6666;51.626;7.530;2022-08-21T14:39:17;24.70;97.00
13203;DHT22;6666;51.626;7.530;2022-08-21T14:41:46;24.70;95.70
13203;DHT22;6666;51.626;7.530;2022-08-21T14:44:17;24.60;95.50
13203;DHT22;6666;51.626;7.530;2022-08-21T14:46:47;24.60;95.60
13203;DHT22;6666;51.626;7.530;2022-08-21T14:49:23;24.60;96.50
13203;DHT22;6666;51.626;7.530;2022-08-21T14:51:53;24.60;96.90
13203;DHT22;6666;51.626;7.530;2022-08-21T14:54:26;24.40;96.50
13203;DHT22;6666;51.626;7.530;2022-08-21T14:56:59;24.30;97.40
13203;DHT22;6666;51.626;7.530;2022-08-21T14:59:29;24.00;97.10
13203;DHT22;6666;51.626;7.530;2022-08-21T15:02:00;23.80;97.90
13203;DHT22;6666;51.626;7.530;2022-08-21T15:04:30;23.70;99.30
13203;DHT22;6666;51.626;7.530;2022-08-21T15:06:59;23.60;98.60
13203;DHT22;6666;51.626;7.530;2022-08-21T15:09:27;23.50;97.90
13203;DHT22;6666;51.626;7.530;2022-08-21T15:11:57;23.50;99.30
13203;DHT22;6666;51.626;7.530;2022-08-21T15:14:28;23.50;98.90
13203;DHT22;6666;51.626;7.530;2022-08-21T15:16:57;23.50;99.00
13203;DHT22;6666;51.626;7.530;2022-08-21T15:19:27;23.50;99.70
13203;DHT22;6666;51.626;7.530;2022-08-21T15:21:56;23.50;99.40
13203;DHT22;6666;51.626;7.530;2022-08-21T15:24:25;23.50;99.20
13203;DHT22;6666;51.626;7.530;2022-08-21T15:26:55;23.50;99.60
13203;DHT22;6666;51.626;7.530;2022-08-21T15:29:23;23.60;99.80
13203;DHT22;6666;51.626;7.530;2022-08-21T15:32:00;23.60;99.30
13203;DHT22;6666;51.626;7.530;2022-08-21T15:34:31;23.60;99.00
13203;DHT22;6666;51.626;7.530;2022-08-21T15:36:59;23.70;99.00
13203;DHT22;6666;51.626;7.530;2022-08-21T15:39:28;23.90;99.60
13203;DHT22;6666;51.626;7.530;2022-08-21T15:42:03;23.90;98.40
13203;DHT22;6666;51.626;7.530;2022-08-21T15:44:37;24.10;99.20
13203;DHT22;6666;51.626;7.530;2022-08-21T15:47:06;24.20;99.70
13203;DHT22;6666;51.626;7.530;2022-08-21T15:49:36;24.20;99.20
13203;DHT22;6666;51.626;7.530;2022-08-21T15:52:05;24.30;99.50
13203;DHT22;6666;51.626;7.530;2022-08-21T15:54:33;24.40;99.70
13203;DHT22;6666;51.626;7.530;2022-08-21T15:57:02;24.50;97.70
13203;DHT22;6666;51.626;7.530;2022-08-21T15:59:32;24.60;97.80
13203;DHT22;6666;51.626;7.530;2022-08-21T16:02:07;24.50;99.30
13203;DHT22;6666;51.626;7.530;2022-08-21T16:04:40;24.50;99.30
13203;DHT22;6666;51.626;7.530;2022-08-21T16:07:08;24.50;99.70
13203;DHT22;6666;51.626;7.530;2022-08-21T16:09:37;24.50;98.70
13203;DHT22;6666;51.626;7.530;2022-08-21T16:12:06;24.60;98.00
13203;DHT22;6666;51.626;7.530;2022-08-21T16:14:35;24.60;97.60
13203;DHT22;6666;51.626;7.530;2022-08-21T16:17:04;24.50;95.80